sensor_id;sensor_type;location;lat;lon;timestamp;temperature;humidity
50955;DHT22;36966;48.064;-0.792;2022-07-29T00:00:22;25.80;40.50
50955;DHT22;36966;48.064;-0.792;2022-07-29T00:02:41;25.80;40.50
50955;DHT22;36966;48.064;-0.792;2022-07-29T00:05:01;25.80;40.50
50955;DHT22;36966;48.064;-0.792;2022-07-29T00:07:21;25.80;40.50
50955;DHT22;36966;48.064;-0.792;2022-07-29T00:09:40;25.80;40.50
50955;DHT22;36966;48.064;-0.792;2022-07-29T00:12:00;25.80;40.50
50955;DHT22;36966;48.064;-0.792;2022-07-29T00:14:20;25.80;40.50
50955;DHT22;36966;48.064;-0.792;2022-07-29T00:16:39;25.80;40.50
50955;DHT22;36966;48.064;-0.792;2022-07-29T00:18:59;25.80;40.60
50955;DHT22;36966;48.064;-0.792;2022-07-29T00:21:18;25.80;40.60
50955;DHT22;36966;48.064;-0.792;2022-07-29T00:23:37;25.80;40.60
50955;DHT22;36966;48.064;-0.792;2022-07-29T00:25:56;25.80;40.60
50955;DHT22;36966;48.064;-0.792;2022-07-29T00:28:15;25.80;40.60
50955;DHT22;36966;48.064;-0.792;2022-07-29T00:30:34;25.80;40.60
50955;DHT22;36966;48.064;-0.792;2022-07-29T00:32:53;25.80;40.60
50955;DHT22;36966;48.064;-0.792;2022-07-29T00:35:12;25.70;40.60
50955;DHT22;36966;48.064;-0.792;2022-07-29T00:37:51;25.70;40.60
50955;DHT22;36966;48.064;-0.792;2022-07-29T00:40:10;25.80;40.70
50955;DHT22;36966;48.064;-0.792;2022-07-29T00:42:29;25.80;40.70
50955;DHT22;36966;48.064;-0.792;2022-07-29T00:44:49;25.80;40.70
50955;DHT22;36966;48.064;-0.792;2022-07-29T00:47:09;25.70;40.70
50955;DHT22;36966;48.064;-0.792;2022-07-29T00:49:29;25.70;40.70
50955;DHT22;36966;48.064;-0.792;2022-07-29T00:51:49;25.70;40.70
50955;DHT22;36966;48.064;-0.792;2022-07-29T00:54:08;25.70;40.70
50955;DHT22;36966;48.064;-0.792;2022-07-29T00:56:30;25.70;40.70
50955;DHT22;36966;48.064;-0.792;2022-07-29T00:58:50;25.70;40.70
50955;DHT22;36966;48.064;-0.792;2022-07-29T01:01:10;25.70;40.70
50955;DHT22;36966;48.064;-0.792;2022-07-29T01:03:29;25.70;40.70
50955;DHT22;36966;48.064;-0.792;2022-07-29T01:05:48;25.70;40.70
50955;DHT22;36966;48.064;-0.792;2022-07-29T01:08:08;25.70;40.70
50955;DHT22;36966;48.064;-0.792;2022-07-29T01:10:30;25.70;40.80
50955;DHT22;36966;48.064;-0.792;2022-07-29T01:12:51;25.70;40.80
50955;DHT22;36966;48.064;-0.792;2022-07-29T01:15:11;25.70;40.80
50955;DHT22;36966;48.064;-0.792;2022-07-29T01:31:04;25.70;40.80
50955;DHT22;36966;48.064;-0.792;2022-07-29T01:33:24;25.70;40.80
50955;DHT22;36966;48.064;-0.792;2022-07-29T01:36:09;25.70;40.80
50955;DHT22;36966;48.064;-0.792;2022-07-29T01:38:30;25.60;40.80
50955;DHT22;36966;48.064;-0.792;2022-07-29T01:40:53;25.60;40.80
50955;DHT22;36966;48.064;-0.792;2022-07-29T01:43:20;25.70;40.80
50955;DHT22;36966;48.064;-0.792;2022-07-29T01:45:46;25.60;40.80
50955;DHT22;36966;48.064;-0.792;2022-07-29T01:48:24;25.60;40.80
50955;DHT22;36966;48.064;-0.792;2022-07-29T01:50:52;25.60;40.80
50955;DHT22;36966;48.064;-0.792;2022-07-29T01:53:20;25.60;40.80
50955;DHT22;36966;48.064;-0.792;2022-07-29T01:55:44;25.60;40.80
50955;DHT22;36966;48.064;-0.792;2022-07-29T01:58:05;25.70;40.90
50955;DHT22;36966;48.064;-0.792;2022-07-29T02:00:26;25.60;40.90
50955;DHT22;36966;48.064;-0.792;2022-07-29T02:02:47;25.60;40.90
50955;DHT22;36966;48.064;-0.792;2022-07-29T02:05:10;25.60;40.90
50955;DHT22;36966;48.064;-0.792;2022-07-29T02:07:31;25.60;40.90
50955;DHT22;36966;48.064;-0.792;2022-07-29T02:09:52;25.60;40.90
50955;DHT22;36966;48.064;-0.792;2022-07-29T02:12:14;25.60;40.90
50955;DHT22;36966;48.064;-0.792;2022-07-29T02:14:37;25.60;41.00
50955;DHT22;36966;48.064;-0.792;2022-07-29T02:16:58;25.60;40.90
50955;DHT22;36966;48.064;-0.792;2022-07-29T02:19:21;25.60;40.90
50955;DHT22;36966;48.064;-0.792;2022-07-29T02:21:43;25.60;40.90
50955;DHT22;36966;48.064;-0.792;2022-07-29T02:24:04;25.50;40.90
50955;DHT22;36966;48.064;-0.792;2022-07-29T02:26:24;25.50;40.90
50955;DHT22;36966;48.064;-0.792;2022-07-29T02:28:45;25.50;40.90
50955;DHT22;36966;48.064;-0.792;2022-07-29T02:31:05;25.50;40.90
50955;DHT22;36966;48.064;-0.792;2022-07-29T02:33:26;25.50;40.90
50955;DHT22;36966;48.064;-0.792;2022-07-29T02:35:47;25.60;40.90
50955;DHT22;36966;48.064;-0.792;2022-07-29T02:38:09;25.50;40.90
50955;DHT22;36966;48.064;-0.792;2022-07-29T02:40:50;25.50;40.90
50955;DHT22;36966;48.064;-0.792;2022-07-29T02:43:11;25.50;40.90
50955;DHT22;36966;48.064;-0.792;2022-07-29T02:45:31;25.50;40.90
50955;DHT22;36966;48.064;-0.792;2022-07-29T02:47:52;25.50;40.90
50955;DHT22;36966;48.064;-0.792;2022-07-29T02:50:20;25.50;41.00
50955;DHT22;36966;48.064;-0.792;2022-07-29T02:55:16;25.50;41.00
50955;DHT22;36966;48.064;-0.792;2022-07-29T02:57:44;25.50;41.00
50955;DHT22;36966;48.064;-0.792;2022-07-29T03:00:07;25.50;41.00
50955;DHT22;36966;48.064;-0.792;2022-07-29T03:02:28;25.50;41.00
50955;DHT22;36966;48.064;-0.792;2022-07-29T03:04:52;25.50;41.00
50955;DHT22;36966;48.064;-0.792;2022-07-29T03:07:13;25.50;41.00
50955;DHT22;36966;48.064;-0.792;2022-07-29T03:09:34;25.50;41.00
50955;DHT22;36966;48.064;-0.792;2022-07-29T03:11:54;25.50;41.00
50955;DHT22;36966;48.064;-0.792;2022-07-29T03:14:14;25.50;41.00
50955;DHT22;36966;48.064;-0.792;2022-07-29T03:16:35;25.50;41.00
50955;DHT22;36966;48.064;-0.792;2022-07-29T03:18:55;25.50;41.00
50955;DHT22;36966;48.064;-0.792;2022-07-29T03:21:14;25.40;41.00
50955;DHT22;36966;48.064;-0.792;2022-07-29T03:23:34;25.50;41.00
50955;DHT22;36966;48.064;-0.792;2022-07-29T03:25:54;25.50;41.00
50955;DHT22;36966;48.064;-0.792;2022-07-29T03:28:14;25.40;41.00
50955;DHT22;36966;48.064;-0.792;2022-07-29T03:30:33;25.40;41.10
50955;DHT22;36966;48.064;-0.792;2022-07-29T03:32:52;25.50;41.10
50955;DHT22;36966;48.064;-0.792;2022-07-29T03:35:11;25.50;41.10
50955;DHT22;36966;48.064;-0.792;2022-07-29T03:37:31;25.50;41.10
50955;DHT22;36966;48.064;-0.792;2022-07-29T03:39:51;25.50;41.10
50955;DHT22;36966;48.064;-0.792;2022-07-29T03:42:14;25.40;41.10
50955;DHT22;36966;48.064;-0.792;2022-07-29T03:44:34;25.40;41.10
50955;DHT22;36966;48.064;-0.792;2022-07-29T03:46:56;25.40;41.10
50955;DHT22;36966;48.064;-0.792;2022-07-29T03:49:17;25.40;41.10
50955;DHT22;36966;48.064;-0.792;2022-07-29T03:51:38;25.40;41.10
50955;DHT22;36966;48.064;-0.792;2022-07-29T03:53:58;25.40;41.10
50955;DHT22;36966;48.064;-0.792;2022-07-29T03:56:21;25.50;41.20
50955;DHT22;36966;48.064;-0.792;2022-07-29T03:58:41;25.40;41.10
50955;DHT22;36966;48.064;-0.792;2022-07-29T04:01:00;25.40;41.10
50955;DHT22;36966;48.064;-0.792;2022-07-29T04:03:20;25.40;41.20
50955;DHT22;36966;48.064;-0.792;2022-07-29T04:05:40;25.40;41.20
50955;DHT22;36966;48.064;-0.792;2022-07-29T04:07:59;25.40;41.20
50955;DHT22;36966;48.064;-0.792;2022-07-29T04:10:18;25.40;41.20
50955;DHT22;36966;48.064;-0.792;2022-07-29T04:12:38;25.40;41.20
50955;DHT22;36966;48.064;-0.792;2022-07-29T04:14:57;25.40;41.20
50955;DHT22;36966;48.064;-0.792;2022-07-29T04:17:17;25.40;41.20
50955;DHT22;36966;48.064;-0.792;2022-07-29T04:19:36;25.40;41.20
50955;DHT22;36966;48.064;-0.792;2022-07-29T04:21:56;25.40;41.20
50955;DHT22;36966;48.064;-0.792;2022-07-29T04:24:16;25.30;41.20
50955;DHT22;36966;48.064;-0.792;2022-07-29T04:26:35;25.40;41.30
50955;DHT22;36966;48.064;-0.792;2022-07-29T04:28:54;25.40;41.30
50955;DHT22;36966;48.064;-0.792;2022-07-29T04:31:13;25.40;41.30
50955;DHT22;36966;48.064;-0.792;2022-07-29T04:33:33;25.30;41.30
50955;DHT22;36966;48.064;-0.792;2022-07-29T04:35:52;25.30;41.30
50955;DHT22;36966;48.064;-0.792;2022-07-29T04:38:11;25.30;41.30
50955;DHT22;36966;48.064;-0.792;2022-07-29T04:40:30;25.30;41.30
50955;DHT22;36966;48.064;-0.792;2022-07-29T04:42:51;25.30;41.30
50955;DHT22;36966;48.064;-0.792;2022-07-29T04:45:11;25.30;41.30
50955;DHT22;36966;48.064;-0.792;2022-07-29T04:47:30;25.30;41.30
50955;DHT22;36966;48.064;-0.792;2022-07-29T04:49:49;25.30;41.40
50955;DHT22;36966;48.064;-0.792;2022-07-29T04:52:09;25.30;41.30
50955;DHT22;36966;48.064;-0.792;2022-07-29T04:54:28;25.30;41.30
50955;DHT22;36966;48.064;-0.792;2022-07-29T04:56:47;25.30;41.30
50955;DHT22;36966;48.064;-0.792;2022-07-29T04:59:06;25.30;41.30
50955;DHT22;36966;48.064;-0.792;2022-07-29T05:01:25;25.30;41.40
50955;DHT22;36966;48.064;-0.792;2022-07-29T05:03:45;25.30;41.30
50955;DHT22;36966;48.064;-0.792;2022-07-29T05:06:04;25.30;41.30
50955;DHT22;36966;48.064;-0.792;2022-07-29T05:08:23;25.40;41.30
50955;DHT22;36966;48.064;-0.792;2022-07-29T05:10:42;25.40;41.30
50955;DHT22;36966;48.064;-0.792;2022-07-29T05:13:01;25.40;41.30
50955;DHT22;36966;48.064;-0.792;2022-07-29T05:15:21;25.40;41.30
50955;DHT22;36966;48.064;-0.792;2022-07-29T05:17:40;25.40;41.20
50955;DHT22;36966;48.064;-0.792;2022-07-29T05:20:00;25.40;41.20
50955;DHT22;36966;48.064;-0.792;2022-07-29T05:22:20;25.40;41.20
50955;DHT22;36966;48.064;-0.792;2022-07-29T05:24:39;25.40;41.20
50955;DHT22;36966;48.064;-0.792;2022-07-29T05:26:58;25.40;41.10
50955;DHT22;36966;48.064;-0.792;2022-07-29T05:29:18;25.40;41.10
50955;DHT22;36966;48.064;-0.792;2022-07-29T05:31:37;25.40;41.10
50955;DHT22;36966;48.064;-0.792;2022-07-29T05:33:56;25.40;41.10
50955;DHT22;36966;48.064;-0.792;2022-07-29T05:36:15;25.40;41.10
50955;DHT22;36966;48.064;-0.792;2022-07-29T05:38:35;25.40;41.10
50955;DHT22;36966;48.064;-0.792;2022-07-29T05:40:57;25.40;41.10
50955;DHT22;36966;48.064;-0.792;2022-07-29T05:43:16;25.40;41.10
50955;DHT22;36966;48.064;-0.792;2022-07-29T05:45:35;25.40;41.00
50955;DHT22;36966;48.064;-0.792;2022-07-29T05:47:56;25.40;41.00
50955;DHT22;36966;48.064;-0.792;2022-07-29T05:50:16;25.40;41.00
50955;DHT22;36966;48.064;-0.792;2022-07-29T05:52:35;25.40;41.00
50955;DHT22;36966;48.064;-0.792;2022-07-29T05:54:54;25.40;40.90
50955;DHT22;36966;48.064;-0.792;2022-07-29T05:57:21;25.40;40.90
50955;DHT22;36966;48.064;-0.792;2022-07-29T05:59:41;25.40;40.90
50955;DHT22;36966;48.064;-0.792;2022-07-29T06:02:00;25.30;40.80
50955;DHT22;36966;48.064;-0.792;2022-07-29T06:04:20;25.40;40.80
50955;DHT22;36966;48.064;-0.792;2022-07-29T06:06:39;25.40;40.80
50955;DHT22;36966;48.064;-0.792;2022-07-29T06:08:58;25.40;40.80
50955;DHT22;36966;48.064;-0.792;2022-07-29T06:11:17;25.40;40.80
50955;DHT22;36966;48.064;-0.792;2022-07-29T06:13:36;25.40;40.70
50955;DHT22;36966;48.064;-0.792;2022-07-29T06:15:55;25.40;40.60
50955;DHT22;36966;48.064;-0.792;2022-07-29T06:18:15;25.40;40.60
50955;DHT22;36966;48.064;-0.792;2022-07-29T06:20:34;25.40;40.60
50955;DHT22;36966;48.064;-0.792;2022-07-29T06:22:53;25.40;40.60
50955;DHT22;36966;48.064;-0.792;2022-07-29T06:25:12;25.40;40.60
50955;DHT22;36966;48.064;-0.792;2022-07-29T06:27:31;25.40;40.50
50955;DHT22;36966;48.064;-0.792;2022-07-29T06:29:51;25.40;40.50
50955;DHT22;36966;48.064;-0.792;2022-07-29T06:32:10;25.40;40.50
50955;DHT22;36966;48.064;-0.792;2022-07-29T06:34:29;25.40;40.50
50955;DHT22;36966;48.064;-0.792;2022-07-29T06:36:49;25.50;40.40
50955;DHT22;36966;48.064;-0.792;2022-07-29T06:39:09;25.40;40.40
50955;DHT22;36966;48.064;-0.792;2022-07-29T06:41:28;25.40;40.40
50955;DHT22;36966;48.064;-0.792;2022-07-29T06:43:47;25.50;40.40
50955;DHT22;36966;48.064;-0.792;2022-07-29T06:46:08;25.50;40.40
50955;DHT22;36966;48.064;-0.792;2022-07-29T06:48:28;25.50;40.30
50955;DHT22;36966;48.064;-0.792;2022-07-29T06:50:47;25.50;40.30
50955;DHT22;36966;48.064;-0.792;2022-07-29T06:53:06;25.50;40.30
50955;DHT22;36966;48.064;-0.792;2022-07-29T06:55:26;25.50;40.20
50955;DHT22;36966;48.064;-0.792;2022-07-29T06:57:45;25.60;40.20
50955;DHT22;36966;48.064;-0.792;2022-07-29T07:00:05;25.60;40.10
50955;DHT22;36966;48.064;-0.792;2022-07-29T07:02:25;25.60;40.10
50955;DHT22;36966;48.064;-0.792;2022-07-29T07:04:45;25.60;40.00
50955;DHT22;36966;48.064;-0.792;2022-07-29T07:07:04;25.70;40.00
50955;DHT22;36966;48.064;-0.792;2022-07-29T07:09:23;25.60;40.00
50955;DHT22;36966;48.064;-0.792;2022-07-29T07:11:42;25.70;39.90
50955;DHT22;36966;48.064;-0.792;2022-07-29T07:14:02;25.70;39.90
50955;DHT22;36966;48.064;-0.792;2022-07-29T07:16:22;25.70;39.90
50955;DHT22;36966;48.064;-0.792;2022-07-29T07:18:41;25.60;39.80
50955;DHT22;36966;48.064;-0.792;2022-07-29T07:21:01;25.70;39.80
50955;DHT22;36966;48.064;-0.792;2022-07-29T07:23:20;25.70;39.80
50955;DHT22;36966;48.064;-0.792;2022-07-29T07:25:39;25.70;39.80
50955;DHT22;36966;48.064;-0.792;2022-07-29T07:27:58;25.70;39.70
50955;DHT22;36966;48.064;-0.792;2022-07-29T07:30:18;25.70;39.70
50955;DHT22;36966;48.064;-0.792;2022-07-29T07:32:37;25.70;39.60
50955;DHT22;36966;48.064;-0.792;2022-07-29T07:34:57;25.70;39.60
50955;DHT22;36966;48.064;-0.792;2022-07-29T07:37:16;25.70;39.70
50955;DHT22;36966;48.064;-0.792;2022-07-29T07:39:38;25.70;39.70
50955;DHT22;36966;48.064;-0.792;2022-07-29T07:41:57;25.70;39.70
50955;DHT22;36966;48.064;-0.792;2022-07-29T07:44:16;25.70;39.70
50955;DHT22;36966;48.064;-0.792;2022-07-29T07:46:36;25.70;39.70
50955;DHT22;36966;48.064;-0.792;2022-07-29T07:48:55;25.70;39.70
50955;DHT22;36966;48.064;-0.792;2022-07-29T07:51:14;25.70;39.70
50955;DHT22;36966;48.064;-0.792;2022-07-29T07:53:34;25.70;39.70
50955;DHT22;36966;48.064;-0.792;2022-07-29T07:55:54;25.80;39.70
50955;DHT22;36966;48.064;-0.792;2022-07-29T07:58:13;25.80;39.70
50955;DHT22;36966;48.064;-0.792;2022-07-29T08:00:32;25.80;39.70
50955;DHT22;36966;48.064;-0.792;2022-07-29T08:02:52;25.90;39.70
50955;DHT22;36966;48.064;-0.792;2022-07-29T08:05:12;25.90;39.60
50955;DHT22;36966;48.064;-0.792;2022-07-29T08:07:35;26.00;39.80
50955;DHT22;36966;48.064;-0.792;2022-07-29T08:09:55;26.10;39.50
50955;DHT22;36966;48.064;-0.792;2022-07-29T08:12:14;26.20;39.40
50955;DHT22;36966;48.064;-0.792;2022-07-29T08:14:33;26.20;39.30
50955;DHT22;36966;48.064;-0.792;2022-07-29T08:16:53;26.20;39.40
50955;DHT22;36966;48.064;-0.792;2022-07-29T08:19:13;26.20;39.30
50955;DHT22;36966;48.064;-0.792;2022-07-29T08:21:32;26.20;39.30
50955;DHT22;36966;48.064;-0.792;2022-07-29T08:23:51;26.20;39.40
50955;DHT22;36966;48.064;-0.792;2022-07-29T08:26:33;26.20;39.40
50955;DHT22;36966;48.064;-0.792;2022-07-29T08:28:52;26.20;39.40
50955;DHT22;36966;48.064;-0.792;2022-07-29T08:31:13;26.20;39.40
50955;DHT22;36966;48.064;-0.792;2022-07-29T08:33:33;26.20;39.40
50955;DHT22;36966;48.064;-0.792;2022-07-29T08:35:52;26.20;39.40
50955;DHT22;36966;48.064;-0.792;2022-07-29T08:38:11;26.20;39.40
50955;DHT22;36966;48.064;-0.792;2022-07-29T08:40:31;26.20;39.40
50955;DHT22;36966;48.064;-0.792;2022-07-29T08:42:51;26.20;39.40
50955;DHT22;36966;48.064;-0.792;2022-07-29T08:45:10;26.20;39.40
50955;DHT22;36966;48.064;-0.792;2022-07-29T08:47:30;26.20;39.40
50955;DHT22;36966;48.064;-0.792;2022-07-29T08:49:49;26.20;39.40
50955;DHT22;36966;48.064;-0.792;2022-07-29T08:52:12;26.20;39.40
50955;DHT22;36966;48.064;-0.792;2022-07-29T08:54:33;26.20;39.40
50955;DHT22;36966;48.064;-0.792;2022-07-29T08:56:53;26.20;39.50
50955;DHT22;36966;48.064;-0.792;2022-07-29T08:59:13;26.20;39.50
50955;DHT22;36966;48.064;-0.792;2022-07-29T09:01:34;26.20;39.50
50955;DHT22;36966;48.064;-0.792;2022-07-29T09:03:55;26.20;39.50
50955;DHT22;36966;48.064;-0.792;2022-07-29T09:06:18;26.20;39.50
50955;DHT22;36966;48.064;-0.792;2022-07-29T09:08:38;26.20;39.50
50955;DHT22;36966;48.064;-0.792;2022-07-29T09:10:57;26.20;39.50
50955;DHT22;36966;48.064;-0.792;2022-07-29T09:13:18;26.20;39.50
50955;DHT22;36966;48.064;-0.792;2022-07-29T09:15:38;26.20;39.50
50955;DHT22;36966;48.064;-0.792;2022-07-29T09:17:57;26.20;39.50
50955;DHT22;36966;48.064;-0.792;2022-07-29T09:20:20;26.10;39.50
50955;DHT22;36966;48.064;-0.792;2022-07-29T09:22:43;26.10;39.60
50955;DHT22;36966;48.064;-0.792;2022-07-29T09:25:03;26.10;39.60
50955;DHT22;36966;48.064;-0.792;2022-07-29T09:27:26;26.10;39.60
50955;DHT22;36966;48.064;-0.792;2022-07-29T09:29:46;26.10;39.70
50955;DHT22;36966;48.064;-0.792;2022-07-29T09:32:08;26.10;39.70
50955;DHT22;36966;48.064;-0.792;2022-07-29T09:34:29;26.10;39.70
50955;DHT22;36966;48.064;-0.792;2022-07-29T09:36:51;26.10;39.70
50955;DHT22;36966;48.064;-0.792;2022-07-29T09:39:11;26.10;39.70
50955;DHT22;36966;48.064;-0.792;2022-07-29T09:41:53;26.10;39.80
50955;DHT22;36966;48.064;-0.792;2022-07-29T09:44:13;26.10;39.80
50955;DHT22;36966;48.064;-0.792;2022-07-29T09:46:33;26.10;39.80
50955;DHT22;36966;48.064;-0.792;2022-07-29T09:49:10;26.00;39.80
50955;DHT22;36966;48.064;-0.792;2022-07-29T09:51:30;26.00;39.90
50955;DHT22;36966;48.064;-0.792;2022-07-29T09:53:49;26.00;39.90
50955;DHT22;36966;48.064;-0.792;2022-07-29T09:56:09;26.10;39.90
50955;DHT22;36966;48.064;-0.792;2022-07-29T09:58:29;26.00;39.90
50955;DHT22;36966;48.064;-0.792;2022-07-29T10:00:51;26.00;39.90
50955;DHT22;36966;48.064;-0.792;2022-07-29T10:03:10;26.00;40.00
50955;DHT22;36966;48.064;-0.792;2022-07-29T10:05:30;26.10;40.00
50955;DHT22;36966;48.064;-0.792;2022-07-29T10:07:53;26.00;40.00
50955;DHT22;36966;48.064;-0.792;2022-07-29T10:10:24;26.00;40.00
50955;DHT22;36966;48.064;-0.792;2022-07-29T10:12:55;26.10;39.90
50955;DHT22;36966;48.064;-0.792;2022-07-29T10:15:15;26.00;40.00
50955;DHT22;36966;48.064;-0.792;2022-07-29T10:17:35;26.00;39.90
50955;DHT22;36966;48.064;-0.792;2022-07-29T10:19:55;26.10;40.00
50955;DHT22;36966;48.064;-0.792;2022-07-29T10:22:14;26.10;40.00
50955;DHT22;36966;48.064;-0.792;2022-07-29T10:24:35;26.10;40.00
50955;DHT22;36966;48.064;-0.792;2022-07-29T10:26:55;26.10;40.00
50955;DHT22;36966;48.064;-0.792;2022-07-29T10:29:14;26.10;39.90
50955;DHT22;36966;48.064;-0.792;2022-07-29T10:31:48;26.10;39.90
50955;DHT22;36966;48.064;-0.792;2022-07-29T10:34:31;26.10;39.90
50955;DHT22;36966;48.064;-0.792;2022-07-29T10:37:12;26.10;39.90
50955;DHT22;36966;48.064;-0.792;2022-07-29T10:42:20;26.20;39.90
50955;DHT22;36966;48.064;-0.792;2022-07-29T10:44:41;26.10;39.90
50955;DHT22;36966;48.064;-0.792;2022-07-29T10:47:01;26.20;39.90
50955;DHT22;36966;48.064;-0.792;2022-07-29T10:49:22;26.10;39.90
50955;DHT22;36966;48.064;-0.792;2022-07-29T10:56:56;26.20;39.90
50955;DHT22;36966;48.064;-0.792;2022-07-29T10:59:29;26.20;39.90
50955;DHT22;36966;48.064;-0.792;2022-07-29T11:01:51;26.20;39.90
50955;DHT22;36966;48.064;-0.792;2022-07-29T11:04:11;26.20;39.90
50955;DHT22;36966;48.064;-0.792;2022-07-29T11:07:09;26.20;39.80
50955;DHT22;36966;48.064;-0.792;2022-07-29T11:09:28;26.20;39.90
50955;DHT22;36966;48.064;-0.792;2022-07-29T11:11:49;26.20;39.90
50955;DHT22;36966;48.064;-0.792;2022-07-29T11:14:09;26.20;39.90
50955;DHT22;36966;48.064;-0.792;2022-07-29T11:17:01;26.20;39.80
50955;DHT22;36966;48.064;-0.792;2022-07-29T11:19:21;26.20;39.80
50955;DHT22;36966;48.064;-0.792;2022-07-29T11:21:43;26.20;39.80
50955;DHT22;36966;48.064;-0.792;2022-07-29T11:24:13;26.30;39.80
50955;DHT22;36966;48.064;-0.792;2022-07-29T11:26:33;26.30;39.80
50955;DHT22;36966;48.064;-0.792;2022-07-29T11:31:44;26.40;39.70
50955;DHT22;36966;48.064;-0.792;2022-07-29T11:39:28;26.40;39.70
50955;DHT22;36966;48.064;-0.792;2022-07-29T11:41:47;26.40;39.70
50955;DHT22;36966;48.064;-0.792;2022-07-29T11:44:07;26.40;39.60
50955;DHT22;36966;48.064;-0.792;2022-07-29T11:49:06;26.50;39.50
50955;DHT22;36966;48.064;-0.792;2022-07-29T11:51:26;26.50;39.50
50955;DHT22;36966;48.064;-0.792;2022-07-29T11:53:50;26.50;39.40
50955;DHT22;36966;48.064;-0.792;2022-07-29T11:56:13;26.50;39.40
50955;DHT22;36966;48.064;-0.792;2022-07-29T11:58:33;26.50;39.40
50955;DHT22;36966;48.064;-0.792;2022-07-29T12:00:54;26.50;39.40
50955;DHT22;36966;48.064;-0.792;2022-07-29T12:03:24;26.50;39.30
50955;DHT22;36966;48.064;-0.792;2022-07-29T12:05:44;26.50;39.40
50955;DHT22;36966;48.064;-0.792;2022-07-29T12:08:08;26.60;39.40
50955;DHT22;36966;48.064;-0.792;2022-07-29T12:10:30;26.60;39.40
50955;DHT22;36966;48.064;-0.792;2022-07-29T12:12:53;26.60;39.40
50955;DHT22;36966;48.064;-0.792;2022-07-29T12:15:16;26.60;39.30
50955;DHT22;36966;48.064;-0.792;2022-07-29T12:17:37;26.60;39.40
50955;DHT22;36966;48.064;-0.792;2022-07-29T12:19:59;26.60;39.40
50955;DHT22;36966;48.064;-0.792;2022-07-29T12:22:33;26.70;39.40
50955;DHT22;36966;48.064;-0.792;2022-07-29T12:24:54;26.70;39.50
50955;DHT22;36966;48.064;-0.792;2022-07-29T12:27:17;26.70;39.30
50955;DHT22;36966;48.064;-0.792;2022-07-29T12:29:36;26.70;39.20
50955;DHT22;36966;48.064;-0.792;2022-07-29T12:31:55;26.80;39.30
50955;DHT22;36966;48.064;-0.792;2022-07-29T12:34:17;26.80;39.20
50955;DHT22;36966;48.064;-0.792;2022-07-29T12:36:36;26.80;38.90
50955;DHT22;36966;48.064;-0.792;2022-07-29T12:38:56;26.80;39.00
50955;DHT22;36966;48.064;-0.792;2022-07-29T12:41:16;26.90;39.10
50955;DHT22;36966;48.064;-0.792;2022-07-29T12:43:35;26.90;39.10
50955;DHT22;36966;48.064;-0.792;2022-07-29T12:45:56;26.80;39.00
50955;DHT22;36966;48.064;-0.792;2022-07-29T12:48:16;26.90;39.00
50955;DHT22;36966;48.064;-0.792;2022-07-29T12:50:53;26.90;39.10
50955;DHT22;36966;48.064;-0.792;2022-07-29T12:53:13;26.90;38.70
50955;DHT22;36966;48.064;-0.792;2022-07-29T12:55:43;26.90;38.70
50955;DHT22;36966;48.064;-0.792;2022-07-29T12:58:03;26.90;38.90
50955;DHT22;36966;48.064;-0.792;2022-07-29T13:00:24;27.00;39.00
50955;DHT22;36966;48.064;-0.792;2022-07-29T13:02:43;27.00;39.10
50955;DHT22;36966;48.064;-0.792;2022-07-29T13:05:04;27.10;39.10
50955;DHT22;36966;48.064;-0.792;2022-07-29T13:07:31;27.10;39.00
50955;DHT22;36966;48.064;-0.792;2022-07-29T13:09:51;27.10;39.00
50955;DHT22;36966;48.064;-0.792;2022-07-29T13:12:12;27.20;38.90
50955;DHT22;36966;48.064;-0.792;2022-07-29T13:14:50;27.10;38.50
50955;DHT22;36966;48.064;-0.792;2022-07-29T13:17:15;27.10;38.40
50955;DHT22;36966;48.064;-0.792;2022-07-29T13:19:38;27.10;38.60
50955;DHT22;36966;48.064;-0.792;2022-07-29T13:21:59;27.10;38.70
50955;DHT22;36966;48.064;-0.792;2022-07-29T13:24:18;27.20;38.80
50955;DHT22;36966;48.064;-0.792;2022-07-29T13:26:39;27.10;38.80
50955;DHT22;36966;48.064;-0.792;2022-07-29T13:29:00;27.20;38.90
50955;DHT22;36966;48.064;-0.792;2022-07-29T13:31:19;27.10;38.70
50955;DHT22;36966;48.064;-0.792;2022-07-29T13:33:38;27.20;38.70
50955;DHT22;36966;48.064;-0.792;2022-07-29T13:35:57;27.20;38.70
50955;DHT22;36966;48.064;-0.792;2022-07-29T13:38:16;27.20;38.80
50955;DHT22;36966;48.064;-0.792;2022-07-29T13:40:35;27.20;38.90
50955;DHT22;36966;48.064;-0.792;2022-07-29T13:42:54;27.20;38.80
50955;DHT22;36966;48.064;-0.792;2022-07-29T13:45:14;27.20;38.80
50955;DHT22;36966;48.064;-0.792;2022-07-29T13:47:33;27.20;38.80
50955;DHT22;36966;48.064;-0.792;2022-07-29T13:49:53;27.10;38.80
50955;DHT22;36966;48.064;-0.792;2022-07-29T13:52:13;27.10;38.70
50955;DHT22;36966;48.064;-0.792;2022-07-29T13:54:32;27.20;38.70
50955;DHT22;36966;48.064;-0.792;2022-07-29T13:56:54;27.20;38.80
50955;DHT22;36966;48.064;-0.792;2022-07-29T13:59:14;27.20;38.90
50955;DHT22;36966;48.064;-0.792;2022-07-29T14:01:34;27.20;38.80
50955;DHT22;36966;48.064;-0.792;2022-07-29T14:03:54;27.20;38.90
50955;DHT22;36966;48.064;-0.792;2022-07-29T14:06:13;27.20;38.90
50955;DHT22;36966;48.064;-0.792;2022-07-29T14:08:32;27.20;38.80
50955;DHT22;36966;48.064;-0.792;2022-07-29T14:10:51;27.20;38.80
50955;DHT22;36966;48.064;-0.792;2022-07-29T14:13:10;27.20;38.70
50955;DHT22;36966;48.064;-0.792;2022-07-29T14:15:29;27.20;38.70
50955;DHT22;36966;48.064;-0.792;2022-07-29T14:17:48;27.20;38.70
50955;DHT22;36966;48.064;-0.792;2022-07-29T14:20:08;27.30;38.60
50955;DHT22;36966;48.064;-0.792;2022-07-29T14:22:27;27.30;38.70
50955;DHT22;36966;48.064;-0.792;2022-07-29T14:24:46;27.30;38.50
50955;DHT22;36966;48.064;-0.792;2022-07-29T14:27:07;27.30;38.60
50955;DHT22;36966;48.064;-0.792;2022-07-29T14:29:26;27.40;38.50
50955;DHT22;36966;48.064;-0.792;2022-07-29T14:31:46;27.40;38.50
50955;DHT22;36966;48.064;-0.792;2022-07-29T14:34:05;27.40;38.30
50955;DHT22;36966;48.064;-0.792;2022-07-29T14:36:24;27.40;38.20
50955;DHT22;36966;48.064;-0.792;2022-07-29T14:38:43;27.40;38.20
50955;DHT22;36966;48.064;-0.792;2022-07-29T14:41:02;27.50;38.30
50955;DHT22;36966;48.064;-0.792;2022-07-29T14:43:22;27.50;38.20
50955;DHT22;36966;48.064;-0.792;2022-07-29T14:45:41;27.50;38.30
50955;DHT22;36966;48.064;-0.792;2022-07-29T14:48:01;27.50;38.30
50955;DHT22;36966;48.064;-0.792;2022-07-29T14:50:21;27.50;38.30
50955;DHT22;36966;48.064;-0.792;2022-07-29T14:52:40;27.60;38.20
50955;DHT22;36966;48.064;-0.792;2022-07-29T14:54:59;27.60;38.00
50955;DHT22;36966;48.064;-0.792;2022-07-29T14:57:18;27.60;38.10
50955;DHT22;36966;48.064;-0.792;2022-07-29T14:59:39;27.70;38.00
50955;DHT22;36966;48.064;-0.792;2022-07-29T15:01:58;27.60;38.00
50955;DHT22;36966;48.064;-0.792;2022-07-29T15:04:17;27.60;37.80
50955;DHT22;36966;48.064;-0.792;2022-07-29T15:06:37;27.60;37.70
50955;DHT22;36966;48.064;-0.792;2022-07-29T15:08:56;27.60;37.70
50955;DHT22;36966;48.064;-0.792;2022-07-29T15:11:15;27.60;37.90